THY595 GQNO-GOBD
Flight info
| Callsign | THY595 |
|---|---|
| Flight time | 0h 49m |
| Altitude | 30000 |
| Route | AMSEP DCT ARDOS DCT VISPA DCT ARBEN DCT SAKLI SAKLI1A |
| Aircraft | B739/M-SDE2E3FGHIRWXY/LB1 |
Departure
| Time | 2026-04-27 08:48 |
|---|---|
| Airport | Nouakchott–Oumtounsy International Airport (GQNO) |
Arrival
| Time | 2026-04-27 09:37 |
|---|---|
| Airport | Blaise Diagne International Airport (GOBD) |
| Time | Latitude | Longitude | Altitude | Speed | Heading |
|---|---|---|---|---|---|
| 2026-04-27 08:10 | 18.30860 | -15.96445 | 6 ft | 0 kts | 59° |
| 2026-04-27 08:37 | 18.30853 | -15.96457 | 6 ft | 4 kts | 59° |
| 2026-04-27 08:37 | 18.30839 | -15.96481 | 10 ft | 4 kts | 59° |
| 2026-04-27 08:37 | 18.30825 | -15.96505 | 8 ft | 4 kts | 58° |
| 2026-04-27 08:37 | 18.30817 | -15.96528 | 7 ft | 4 kts | 105° |
| 2026-04-27 08:38 | 18.30831 | -15.96548 | 8 ft | 4 kts | 148° |
| 2026-04-27 08:38 | 18.30840 | -15.96554 | 7 ft | 1 kts | 149° |
| 2026-04-27 08:38 | 18.30841 | -15.96554 | 7 ft | 0 kts | 149° |
| 2026-04-27 08:41 | 18.30834 | -15.96550 | 7 ft | 3 kts | 149° |
| 2026-04-27 08:42 | 18.30798 | -15.96527 | 6 ft | 9 kts | 149° |
| 2026-04-27 08:42 | 18.30727 | -15.96482 | 7 ft | 14 kts | 149° |
| 2026-04-27 08:42 | 18.30629 | -15.96441 | 9 ft | 16 kts | 193° |
| 2026-04-27 08:42 | 18.30533 | -15.96473 | 11 ft | 15 kts | 158° |
| 2026-04-27 08:43 | 18.30443 | -15.96420 | 13 ft | 15 kts | 150° |
| 2026-04-27 08:43 | 18.30346 | -15.96361 | 13 ft | 17 kts | 149° |
| 2026-04-27 08:43 | 18.30235 | -15.96293 | 15 ft | 20 kts | 149° |
| 2026-04-27 08:43 | 18.30101 | -15.96210 | 12 ft | 25 kts | 149° |
| 2026-04-27 08:44 | 18.29943 | -15.96114 | 11 ft | 28 kts | 150° |
| 2026-04-27 08:44 | 18.29769 | -15.96008 | 6 ft | 29 kts | 149° |
| 2026-04-27 08:44 | 18.29600 | -15.95903 | 6 ft | 27 kts | 149° |
| 2026-04-27 08:44 | 18.29443 | -15.95807 | 7 ft | 26 kts | 150° |
| 2026-04-27 08:45 | 18.29294 | -15.95716 | 10 ft | 24 kts | 150° |
| 2026-04-27 08:45 | 18.29175 | -15.95642 | 10 ft | 19 kts | 150° |
| 2026-04-27 08:45 | 18.29060 | -15.95619 | 12 ft | 18 kts | 221° |
| 2026-04-27 08:45 | 18.29044 | -15.95643 | 10 ft | 0 kts | 243° |
| 2026-04-27 08:46 | 18.29043 | -15.95646 | 10 ft | 1 kts | 244° |
| 2026-04-27 08:46 | 18.29035 | -15.95660 | 10 ft | 4 kts | 241° |
| 2026-04-27 08:46 | 18.29012 | -15.95703 | 8 ft | 10 kts | 240° |
| 2026-04-27 08:46 | 18.29043 | -15.95768 | 7 ft | 13 kts | 327° |
| 2026-04-27 08:47 | 18.29180 | -15.95852 | 7 ft | 48 kts | 329° |
| 2026-04-27 08:47 | 18.29659 | -15.96149 | 6 ft | 111 kts | 330° |
| 2026-04-27 08:47 | 18.30473 | -15.96642 | 43 ft | 154 kts | 330° |
| 2026-04-27 08:47 | 18.31417 | -15.97219 | 561 ft | 157 kts | 331° |
| 2026-04-27 08:48 | 18.32385 | -15.97804 | 1059 ft | 165 kts | 331° |
| 2026-04-27 08:48 | 18.33388 | -15.98422 | 1642 ft | 167 kts | 332° |
| 2026-04-27 08:48 | 18.34376 | -15.99046 | 2352 ft | 166 kts | 332° |
| 2026-04-27 08:48 | 18.35421 | -15.99711 | 2724 ft | 185 kts | 330° |
| 2026-04-27 08:49 | 18.36579 | -16.00450 | 3021 ft | 206 kts | 331° |
| 2026-04-27 08:49 | 18.37995 | -16.00949 | 3178 ft | 225 kts | 1° |
| 2026-04-27 08:49 | 18.39542 | -16.00513 | 3472 ft | 247 kts | 30° |
| 2026-04-27 08:49 | 18.40785 | -15.99188 | 3927 ft | 266 kts | 54° |
| 2026-04-27 08:50 | 18.41783 | -15.97497 | 4533 ft | 276 kts | 57° |
| 2026-04-27 08:50 | 18.42772 | -15.95734 | 5171 ft | 284 kts | 58° |
| 2026-04-27 08:50 | 18.43764 | -15.93885 | 5745 ft | 295 kts | 64° |
| 2026-04-27 08:50 | 18.44204 | -15.91770 | 6401 ft | 302 kts | 91° |
| 2026-04-27 08:51 | 18.43767 | -15.89628 | 6922 ft | 306 kts | 118° |
| 2026-04-27 08:51 | 18.42513 | -15.87833 | 7433 ft | 305 kts | 145° |
| 2026-04-27 08:51 | 18.40813 | -15.86537 | 8214 ft | 299 kts | 153° |
| 2026-04-27 08:51 | 18.39074 | -15.85345 | 9013 ft | 298 kts | 154° |
| 2026-04-27 08:52 | 18.37328 | -15.84161 | 9758 ft | 300 kts | 154° |
| 2026-04-27 08:52 | 18.35560 | -15.82977 | 10342 ft | 305 kts | 158° |
| 2026-04-27 08:52 | 18.33526 | -15.82306 | 10500 ft | 313 kts | 179° |
| 2026-04-27 08:52 | 18.31294 | -15.81983 | 10645 ft | 334 kts | 176° |
| 2026-04-27 08:53 | 18.28938 | -15.81522 | 10851 ft | 352 kts | 174° |
| 2026-04-27 08:53 | 18.26523 | -15.80929 | 11292 ft | 362 kts | 168° |
| 2026-04-27 08:53 | 18.24165 | -15.79909 | 11872 ft | 369 kts | 160° |
| 2026-04-27 08:53 | 18.21865 | -15.78773 | 12497 ft | 371 kts | 160° |
| 2026-04-27 08:54 | 18.19486 | -15.77729 | 13102 ft | 370 kts | 168° |
| 2026-04-27 08:54 | 18.16975 | -15.77231 | 13701 ft | 366 kts | 180° |
| 2026-04-27 08:54 | 18.14440 | -15.77294 | 14244 ft | 365 kts | 191° |
| 2026-04-27 08:54 | 18.11911 | -15.77643 | 14741 ft | 369 kts | 192° |
| 2026-04-27 08:55 | 18.09349 | -15.78017 | 15228 ft | 374 kts | 192° |
| 2026-04-27 08:55 | 18.06754 | -15.78395 | 15740 ft | 378 kts | 192° |
| 2026-04-27 08:55 | 18.04132 | -15.78768 | 16231 ft | 383 kts | 192° |
| 2026-04-27 08:55 | 18.01474 | -15.79138 | 16714 ft | 387 kts | 192° |
| 2026-04-27 08:56 | 17.98779 | -15.79508 | 17188 ft | 392 kts | 191° |
| 2026-04-27 08:56 | 17.96064 | -15.79877 | 17649 ft | 396 kts | 191° |
| 2026-04-27 08:56 | 17.93315 | -15.80249 | 18096 ft | 400 kts | 191° |
| 2026-04-27 08:56 | 17.90526 | -15.80625 | 18502 ft | 404 kts | 191° |
| 2026-04-27 08:57 | 17.84928 | -15.81380 | 19307 ft | 410 kts | 191° |
| 2026-04-27 08:57 | 17.82087 | -15.81763 | 19705 ft | 413 kts | 191° |
| 2026-04-27 08:57 | 17.79226 | -15.82148 | 20086 ft | 416 kts | 191° |
| 2026-04-27 08:58 | 17.76344 | -15.82537 | 20456 ft | 419 kts | 191° |
| 2026-04-27 08:58 | 17.73446 | -15.82928 | 20826 ft | 422 kts | 191° |
| 2026-04-27 08:58 | 17.70523 | -15.83333 | 21196 ft | 424 kts | 193° |
| 2026-04-27 08:58 | 17.67667 | -15.84047 | 21550 ft | 421 kts | 203° |
| 2026-04-27 08:59 | 17.64941 | -15.85168 | 21931 ft | 422 kts | 206° |
| 2026-04-27 08:59 | 17.62217 | -15.86347 | 22274 ft | 425 kts | 206° |
| 2026-04-27 08:59 | 17.59480 | -15.87540 | 22618 ft | 427 kts | 206° |
| 2026-04-27 08:59 | 17.56720 | -15.88736 | 22952 ft | 430 kts | 206° |
| 2026-04-27 09:00 | 17.53944 | -15.89928 | 23289 ft | 432 kts | 206° |
| 2026-04-27 09:00 | 17.51147 | -15.91121 | 23606 ft | 435 kts | 206° |
| 2026-04-27 09:00 | 17.48335 | -15.92313 | 23879 ft | 437 kts | 206° |
| 2026-04-27 09:00 | 17.45506 | -15.93508 | 24166 ft | 439 kts | 206° |
| 2026-04-27 09:01 | 17.42671 | -15.94702 | 24449 ft | 440 kts | 206° |
| 2026-04-27 09:01 | 17.39821 | -15.95903 | 24728 ft | 442 kts | 206° |
| 2026-04-27 09:01 | 17.36957 | -15.97108 | 24996 ft | 444 kts | 206° |
| 2026-04-27 09:01 | 17.34086 | -15.98317 | 25265 ft | 446 kts | 206° |
| 2026-04-27 09:02 | 17.31198 | -15.99533 | 25536 ft | 448 kts | 206° |
| 2026-04-27 09:02 | 17.28304 | -16.00751 | 25790 ft | 450 kts | 207° |
| 2026-04-27 09:02 | 17.25386 | -16.01979 | 26035 ft | 452 kts | 207° |
| 2026-04-27 09:02 | 17.22500 | -16.03193 | 26286 ft | 454 kts | 207° |
| 2026-04-27 09:03 | 17.19561 | -16.04428 | 26547 ft | 455 kts | 207° |
| 2026-04-27 09:03 | 17.16613 | -16.05668 | 26800 ft | 457 kts | 207° |
| 2026-04-27 09:03 | 17.13651 | -16.06912 | 27045 ft | 459 kts | 207° |
| 2026-04-27 09:03 | 17.10682 | -16.08159 | 27299 ft | 461 kts | 207° |
| 2026-04-27 09:04 | 17.07693 | -16.09414 | 27530 ft | 463 kts | 207° |
| 2026-04-27 09:04 | 17.04708 | -16.10667 | 27800 ft | 463 kts | 207° |
| 2026-04-27 09:04 | 17.01708 | -16.11925 | 28042 ft | 465 kts | 207° |
| 2026-04-27 09:04 | 16.98703 | -16.13186 | 28273 ft | 466 kts | 208° |
| 2026-04-27 09:05 | 16.95690 | -16.14449 | 28568 ft | 467 kts | 208° |
| 2026-04-27 09:05 | 16.92678 | -16.15711 | 28936 ft | 465 kts | 208° |
| 2026-04-27 09:05 | 16.89679 | -16.16966 | 29318 ft | 464 kts | 208° |
| 2026-04-27 09:05 | 16.86684 | -16.18220 | 29670 ft | 463 kts | 208° |
| 2026-04-27 09:06 | 16.83688 | -16.19474 | 30001 ft | 463 kts | 208° |
| 2026-04-27 09:06 | 16.77676 | -16.21993 | 30011 ft | 465 kts | 208° |
| 2026-04-27 09:07 | 16.71732 | -16.24477 | 30003 ft | 461 kts | 208° |
| 2026-04-27 09:07 | 16.65791 | -16.26959 | 30016 ft | 457 kts | 208° |
| 2026-04-27 09:08 | 16.59898 | -16.29421 | 30015 ft | 455 kts | 208° |
| 2026-04-27 09:08 | 16.55012 | -16.31463 | 30020 ft | 455 kts | 208° |
| 2026-04-27 09:09 | 16.49129 | -16.33919 | 30017 ft | 455 kts | 208° |
| 2026-04-27 09:09 | 16.42215 | -16.36641 | 30008 ft | 463 kts | 202° |
| 2026-04-27 09:10 | 16.36933 | -16.37961 | 30004 ft | 468 kts | 199° |
| 2026-04-27 09:10 | 16.30570 | -16.39421 | 30023 ft | 469 kts | 199° |
| 2026-04-27 09:11 | 16.24246 | -16.40936 | 30022 ft | 469 kts | 200° |
| 2026-04-27 09:11 | 16.17884 | -16.42503 | 30020 ft | 470 kts | 200° |
| 2026-04-27 09:12 | 16.11523 | -16.44072 | 30021 ft | 470 kts | 200° |
| 2026-04-27 09:12 | 16.05170 | -16.45661 | 30014 ft | 467 kts | 203° |
| 2026-04-27 09:12 | 16.02261 | -16.47018 | 30040 ft | 453 kts | 215° |
| 2026-04-27 09:13 | 15.99510 | -16.48637 | 30016 ft | 454 kts | 215° |
| 2026-04-27 09:13 | 15.94041 | -16.51834 | 30017 ft | 454 kts | 215° |
| 2026-04-27 09:14 | 15.88505 | -16.55008 | 30019 ft | 454 kts | 214° |
| 2026-04-27 09:14 | 15.82957 | -16.58157 | 30020 ft | 454 kts | 214° |
| 2026-04-27 09:15 | 15.77407 | -16.61299 | 30015 ft | 454 kts | 214° |
| 2026-04-27 09:15 | 15.71863 | -16.64438 | 30022 ft | 454 kts | 214° |
| 2026-04-27 09:16 | 15.66315 | -16.67579 | 30002 ft | 453 kts | 214° |
| 2026-04-27 09:16 | 15.60810 | -16.70693 | 30018 ft | 453 kts | 214° |
| 2026-04-27 09:16 | 15.58030 | -16.72266 | 29814 ft | 456 kts | 214° |
| 2026-04-27 09:17 | 15.55237 | -16.73847 | 29256 ft | 456 kts | 213° |
| 2026-04-27 09:17 | 15.52469 | -16.75408 | 28641 ft | 449 kts | 213° |
| 2026-04-27 09:17 | 15.49743 | -16.76946 | 28025 ft | 444 kts | 213° |
| 2026-04-27 09:17 | 15.47048 | -16.78467 | 27418 ft | 438 kts | 213° |
| 2026-04-27 09:18 | 15.44381 | -16.79973 | 26818 ft | 433 kts | 213° |
| 2026-04-27 09:18 | 15.41743 | -16.81464 | 26223 ft | 429 kts | 213° |
| 2026-04-27 09:18 | 15.39134 | -16.82937 | 25628 ft | 425 kts | 212° |
| 2026-04-27 09:18 | 15.36576 | -16.84383 | 25019 ft | 422 kts | 212° |
| 2026-04-27 09:19 | 15.34004 | -16.85833 | 24398 ft | 420 kts | 212° |
| 2026-04-27 09:19 | 15.31435 | -16.87257 | 23833 ft | 418 kts | 208° |
| 2026-04-27 09:19 | 15.28677 | -16.88224 | 23186 ft | 420 kts | 197° |
| 2026-04-27 09:19 | 15.25834 | -16.88894 | 22561 ft | 416 kts | 195° |
| 2026-04-27 09:20 | 15.23012 | -16.89527 | 21959 ft | 413 kts | 195° |
| 2026-04-27 09:20 | 15.20221 | -16.90160 | 21375 ft | 408 kts | 195° |
| 2026-04-27 09:20 | 15.17458 | -16.90805 | 20808 ft | 405 kts | 196° |
| 2026-04-27 09:20 | 15.14726 | -16.91459 | 20239 ft | 402 kts | 196° |
| 2026-04-27 09:21 | 15.12014 | -16.92117 | 19657 ft | 399 kts | 196° |
| 2026-04-27 09:21 | 15.09320 | -16.92776 | 19090 ft | 397 kts | 196° |
| 2026-04-27 09:21 | 15.06646 | -16.93432 | 18526 ft | 394 kts | 196° |
| 2026-04-27 09:21 | 15.03976 | -16.94087 | 17907 ft | 392 kts | 195° |
| 2026-04-27 09:22 | 15.01331 | -16.94735 | 17319 ft | 389 kts | 195° |
| 2026-04-27 09:22 | 14.98714 | -16.95375 | 16744 ft | 384 kts | 195° |
| 2026-04-27 09:22 | 14.96155 | -16.96001 | 16206 ft | 380 kts | 195° |
| 2026-04-27 09:22 | 14.93598 | -16.96626 | 15669 ft | 376 kts | 195° |
| 2026-04-27 09:23 | 14.91052 | -16.97202 | 15135 ft | 372 kts | 190° |
| 2026-04-27 09:23 | 14.88471 | -16.97305 | 14621 ft | 370 kts | 180° |
| 2026-04-27 09:23 | 14.85927 | -16.97216 | 14096 ft | 360 kts | 180° |
| 2026-04-27 09:23 | 14.83454 | -16.97137 | 13552 ft | 350 kts | 181° |
| 2026-04-27 09:24 | 14.81048 | -16.97091 | 13001 ft | 341 kts | 181° |
| 2026-04-27 09:24 | 14.78701 | -16.97064 | 12488 ft | 332 kts | 181° |
| 2026-04-27 09:24 | 14.76401 | -16.97044 | 12028 ft | 330 kts | 181° |
| 2026-04-27 09:24 | 14.74144 | -16.97026 | 11699 ft | 327 kts | 181° |
| 2026-04-27 09:25 | 14.71885 | -16.97006 | 11355 ft | 322 kts | 181° |
| 2026-04-27 09:25 | 14.69662 | -16.96986 | 11020 ft | 317 kts | 181° |
| 2026-04-27 09:25 | 14.67475 | -16.96966 | 10694 ft | 312 kts | 181° |
| 2026-04-27 09:25 | 14.65325 | -16.96947 | 10371 ft | 306 kts | 181° |
| 2026-04-27 09:26 | 14.63230 | -16.96929 | 10044 ft | 296 kts | 180° |
| 2026-04-27 09:26 | 14.61218 | -16.96911 | 9970 ft | 278 kts | 180° |
| 2026-04-27 09:26 | 14.59296 | -16.96893 | 9481 ft | 278 kts | 181° |
| 2026-04-27 09:26 | 14.57391 | -16.96877 | 9131 ft | 272 kts | 180° |
| 2026-04-27 09:27 | 14.55523 | -16.96860 | 8845 ft | 266 kts | 181° |
| 2026-04-27 09:27 | 14.53684 | -16.96844 | 8562 ft | 264 kts | 181° |
| 2026-04-27 09:27 | 14.51835 | -16.96828 | 8293 ft | 267 kts | 181° |
| 2026-04-27 09:27 | 14.49960 | -16.96812 | 8016 ft | 272 kts | 182° |
| 2026-04-27 09:28 | 14.48059 | -16.96796 | 7726 ft | 274 kts | 181° |
| 2026-04-27 09:28 | 14.46148 | -16.96779 | 7430 ft | 275 kts | 181° |
| 2026-04-27 09:28 | 14.44228 | -16.96761 | 7145 ft | 278 kts | 182° |
| 2026-04-27 09:28 | 14.42281 | -16.96745 | 6843 ft | 281 kts | 181° |
| 2026-04-27 09:29 | 14.40372 | -16.97003 | 6517 ft | 275 kts | 206° |
| 2026-04-27 09:29 | 14.38862 | -16.98121 | 6238 ft | 265 kts | 233° |
| 2026-04-27 09:29 | 14.37984 | -16.99745 | 5968 ft | 257 kts | 254° |
| 2026-04-27 09:29 | 14.37741 | -17.01517 | 5842 ft | 242 kts | 270° |
| 2026-04-27 09:30 | 14.37722 | -17.03197 | 5743 ft | 226 kts | 271° |
| 2026-04-27 09:30 | 14.37964 | -17.04718 | 5577 ft | 208 kts | 297° |
| 2026-04-27 09:30 | 14.38796 | -17.05882 | 5171 ft | 209 kts | 319° |
| 2026-04-27 09:30 | 14.40007 | -17.06683 | 4844 ft | 207 kts | 339° |
| 2026-04-27 09:31 | 14.41363 | -17.06884 | 4766 ft | 196 kts | 352° |
| 2026-04-27 09:31 | 14.42715 | -17.06989 | 4561 ft | 195 kts | 354° |
| 2026-04-27 09:31 | 14.44064 | -17.07046 | 4312 ft | 191 kts | 356° |
| 2026-04-27 09:31 | 14.45377 | -17.07071 | 4069 ft | 187 kts | 357° |
| 2026-04-27 09:32 | 14.46650 | -17.07087 | 3837 ft | 183 kts | 357° |
| 2026-04-27 09:32 | 14.47906 | -17.07100 | 3611 ft | 176 kts | 358° |
| 2026-04-27 09:32 | 14.49101 | -17.07111 | 3399 ft | 167 kts | 358° |
| 2026-04-27 09:32 | 14.50233 | -17.07121 | 3173 ft | 159 kts | 358° |
| 2026-04-27 09:33 | 14.51299 | -17.07132 | 3029 ft | 146 kts | 358° |
| 2026-04-27 09:33 | 14.52285 | -17.07141 | 2814 ft | 138 kts | 358° |
| 2026-04-27 09:33 | 14.53257 | -17.07151 | 2638 ft | 140 kts | 0° |
| 2026-04-27 09:33 | 14.54219 | -17.07160 | 2457 ft | 137 kts | 0° |
| 2026-04-27 09:34 | 14.55166 | -17.07171 | 2294 ft | 135 kts | 360° |
| 2026-04-27 09:34 | 14.56099 | -17.07176 | 2123 ft | 133 kts | 1° |
| 2026-04-27 09:34 | 14.57024 | -17.07180 | 1948 ft | 133 kts | 0° |
| 2026-04-27 09:34 | 14.57948 | -17.07190 | 1736 ft | 130 kts | 359° |
| 2026-04-27 09:35 | 14.58829 | -17.07214 | 1551 ft | 124 kts | 0° |
| 2026-04-27 09:35 | 14.59692 | -17.07201 | 1413 ft | 124 kts | 0° |
| 2026-04-27 09:35 | 14.60557 | -17.07204 | 1267 ft | 125 kts | 358° |
| 2026-04-27 09:35 | 14.61425 | -17.07238 | 1110 ft | 128 kts | 358° |
| 2026-04-27 09:36 | 14.62339 | -17.07257 | 902 ft | 133 kts | 1° |
| 2026-04-27 09:36 | 14.63264 | -17.07261 | 801 ft | 135 kts | 2° |
| 2026-04-27 09:36 | 14.64222 | -17.07253 | 613 ft | 137 kts | 360° |
| 2026-04-27 09:36 | 14.65156 | -17.07264 | 399 ft | 129 kts | 360° |
| 2026-04-27 09:37 | 14.66039 | -17.07272 | 293 ft | 121 kts | 360° |
| 2026-04-27 09:37 | 14.66776 | -17.07279 | 293 ft | 88 kts | 360° |
| 2026-04-27 09:37 | 14.67269 | -17.07284 | 292 ft | 53 kts | 358° |
| 2026-04-27 09:37 | 14.67590 | -17.07284 | 290 ft | 29 kts | 5° |
| 2026-04-27 09:38 | 14.67762 | -17.07214 | 292 ft | 14 kts | 27° |
| 2026-04-27 09:38 | 14.67834 | -17.07150 | 292 ft | 14 kts | 83° |
| 2026-04-27 09:38 | 14.67770 | -17.07097 | 292 ft | 13 kts | 176° |
| 2026-04-27 09:38 | 14.67681 | -17.07095 | 295 ft | 13 kts | 179° |
| 2026-04-27 09:39 | 14.67593 | -17.07094 | 297 ft | 12 kts | 179° |
| 2026-04-27 09:39 | 14.67507 | -17.07093 | 292 ft | 12 kts | 179° |
| 2026-04-27 09:39 | 14.67423 | -17.07092 | 295 ft | 12 kts | 179° |
| 2026-04-27 09:39 | 14.67341 | -17.07092 | 295 ft | 12 kts | 180° |
| 2026-04-27 09:40 | 14.67262 | -17.07092 | 292 ft | 11 kts | 180° |
| 2026-04-27 09:40 | 14.67185 | -17.07093 | 294 ft | 11 kts | 180° |
| 2026-04-27 09:40 | 14.67110 | -17.07090 | 292 ft | 11 kts | 166° |
| 2026-04-27 09:40 | 14.67081 | -17.07030 | 294 ft | 10 kts | 79° |
| 2026-04-27 09:41 | 14.67123 | -17.06980 | 292 ft | 10 kts | 9° |
| 2026-04-27 09:41 | 14.67185 | -17.06961 | 295 ft | 10 kts | 63° |
| 2026-04-27 09:41 | 14.67157 | -17.06898 | 293 ft | 10 kts | 122° |
| 2026-04-27 09:41 | 14.67130 | -17.06855 | 294 ft | 3 kts | 122° |
| 2026-04-27 09:42 | 14.67127 | -17.06850 | 293 ft | 0 kts | 122° |